Time;durP1;ratioP1;P1;durP2;ratioP2;P2;SDS_P1;SDS_P2;PMS_P1;PMS_P2;Temp;Humidity;BMP_temperature;BMP_pressure;BME280_temperature;BME280_humidity;BME280_pressure;Samples;Min_cycle;Max_cycle;Signal;HPM_P1;HPM_P2
2022/12/14 09:24:41;;;;;;;5.22;3.03;;;22.00;40.10;;;;;;5074508;27;20548;-42
2022/12/14 09:27:08;;;;;;;4.18;3.17;;;22.00;39.40;;;;;;5078554;28;20680;-40
2022/12/14 09:29:35;;;;;;;4.45;2.63;;;22.10;39.30;;;;;;5057983;28;20622;-43
2022/12/14 09:32:01;;;;;;;3.50;2.78;;;22.10;39.30;;;;;;5042135;28;20222;-40
2022/12/14 09:34:28;;;;;;;3.17;2.65;;;22.10;39.40;;;;;;5046889;28;20216;-39
2022/12/14 09:36:54;;;;;;;2.50;2.30;;;22.10;39.40;;;;;;5036069;28;20297;-44
2022/12/14 09:39:21;;;;;;;2.38;2.15;;;22.10;39.90;;;;;;5031457;28;20205;-40
2022/12/14 09:41:47;;;;;;;2.92;2.20;;;22.00;39.80;;;;;;5030478;28;20229;-37
2022/12/14 09:44:15;;;;;;;2.90;2.20;;;22.00;39.90;;;;;;5044416;28;20697;-38
2022/12/14 09:46:41;;;;;;;2.22;2.03;;;22.00;39.80;;;;;;5060125;28;20229;-37
2022/12/14 09:49:08;;;;;;;2.08;1.80;;;22.00;39.80;;;;;;5064511;28;20205;-45
2022/12/14 09:51:35;;;;;;;3.05;2.38;;;21.90;39.90;;;;;;5056024;28;20221;-37
2022/12/14 09:54:01;;;;;;;2.33;2.00;;;21.80;40.50;;;;;;5062327;28;20205;-36
2022/12/14 09:56:28;;;;;;;3.55;2.17;;;21.80;41.00;;;;;;5061406;28;20570;-40
2022/12/14 09:58:54;;;;;;;3.65;2.42;;;21.90;41.00;;;;;;5056265;28;20204;-44
2022/12/14 10:01:21;;;;;;;2.20;1.98;;;22.00;41.20;;;;;;5059801;28;20236;-40
2022/12/14 10:03:48;;;;;;;4.72;2.08;;;22.10;40.80;;;;;;5063105;28;20229;-36
2022/12/14 10:06:15;;;;;;;2.67;2.05;;;22.10;40.70;;;;;;5061431;28;20600;-43
2022/12/14 10:08:41;;;;;;;3.13;1.70;;;22.10;40.50;;;;;;5064421;28;20259;-43
2022/12/14 10:11:08;;;;;;;2.58;1.95;;;22.00;41.10;;;;;;5058740;28;20228;-38
2022/12/14 10:13:34;;;;;;;2.35;2.00;;;22.10;41.20;;;;;;5064127;28;20292;-39
2022/12/14 10:16:01;;;;;;;5.10;2.88;;;22.10;42.10;;;;;;5065663;28;20215;-37
2022/12/14 10:18:27;;;;;;;4.93;2.92;;;22.00;40.10;;;;;;5066290;28;20194;-36
2022/12/14 10:20:54;;;;;;;3.60;2.38;;;22.00;39.80;;;;;;5064910;28;20233;-35
2022/12/14 10:23:21;;;;;;;4.05;2.30;;;21.70;40.90;;;;;;5061386;28;20332;-35
2022/12/14 10:25:47;;;;;;;6.38;2.70;;;21.50;40.80;;;;;;5064317;28;20205;-37
2022/12/14 10:28:13;;;;;;;6.53;2.10;;;21.70;40.90;;;;;;5061761;28;20229;-37
2022/12/14 10:30:40;;;;;;;2.72;1.80;;;21.80;41.00;;;;;;5062932;28;20282;-38
2022/12/14 10:33:08;;;;;;;1.67;1.58;;;21.80;41.30;;;;;;5061672;28;20751;-37
2022/12/14 10:35:34;;;;;;;2.42;1.77;;;22.00;41.80;;;;;;5052548;28;20252;-44
2022/12/14 10:38:01;;;;;;;2.90;1.73;;;22.10;40.80;;;;;;5053660;28;20570;-40
2022/12/14 10:40:27;;;;;;;3.47;1.73;;;21.90;41.00;;;;;;5051187;28;20701;-41
2022/12/14 10:42:54;;;;;;;3.53;1.83;;;22.00;41.10;;;;;;5051029;28;20221;-43
2022/12/14 10:45:20;;;;;;;2.25;1.67;;;22.00;41.10;;;;;;5053948;28;20201;-54
2022/12/14 10:47:47;;;;;;;2.95;1.70;;;21.80;41.00;;;;;;5051617;28;20542;-44
2022/12/14 10:50:13;;;;;;;1.90;1.70;;;21.60;41.30;;;;;;5051161;28;20728;-49
2022/12/14 10:52:40;;;;;;;4.68;1.70;;;21.60;41.50;;;;;;5047127;28;20229;-48
2022/12/14 10:55:06;;;;;;;3.72;1.80;;;21.70;41.50;;;;;;5044556;28;20596;-36
2022/12/14 10:57:33;;;;;;;2.53;2.00;;;21.90;41.00;;;;;;5049806;28;20395;-41
2022/12/14 10:59:59;;;;;;;4.80;2.08;;;21.70;40.90;;;;;;5053278;28;20217;-37
2022/12/14 11:02:26;;;;;;;3.55;1.60;;;21.60;41.50;;;;;;5045601;28;20194;-36
2022/12/14 11:04:52;;;;;;;4.20;2.00;;;21.60;41.50;;;;;;5040219;28;20596;-36
2022/12/14 11:07:19;;;;;;;2.22;1.92;;;21.60;41.30;;;;;;5046752;28;20205;-42
2022/12/14 11:09:45;;;;;;;3.75;2.03;;;21.60;41.30;;;;;;5050190;28;20251;-38
2022/12/14 11:12:12;;;;;;;2.25;1.92;;;21.50;41.40;;;;;;5042545;28;20281;-53
2022/12/14 11:14:40;;;;;;;3.67;1.75;;;21.50;41.50;;;;;;5043620;28;20206;-45
2022/12/14 11:17:06;;;;;;;2.33;1.80;;;21.40;41.60;;;;;;5040144;28;20202;-41
2022/12/14 11:19:33;;;;;;;3.10;2.80;;;21.40;41.60;;;;;;5028048;28;20261;-39
2022/12/14 11:21:59;;;;;;;3.78;2.53;;;21.60;41.30;;;;;;5047089;28;20208;-43
2022/12/14 11:24:25;;;;;;;4.57;2.42;;;21.60;40.80;;;;;;5052664;28;20226;-47
2022/12/14 11:26:52;;;;;;;8.23;2.90;;;21.70;41.20;;;;;;5040219;28;20198;-43
2022/12/14 11:29:20;;;;;;;3.53;2.40;;;21.70;41.50;;;;;;5047382;28;20226;-49
2022/12/14 11:31:46;;;;;;;4.78;2.80;;;21.70;41.50;;;;;;5051240;28;20293;-44
2022/12/14 11:34:13;;;;;;;8.45;3.10;;;21.90;41.60;;;;;;5048630;28;20226;-45
2022/12/14 11:36:39;;;;;;;6.55;3.20;;;22.00;41.50;;;;;;5047380;28;20511;-54
2022/12/14 11:39:06;;;;;;;8.45;3.35;;;22.10;41.60;;;;;;5033792;28;20230;-50
2022/12/14 11:41:32;;;;;;;10.00;3.20;;;22.20;41.80;;;;;;5047298;28;20255;-47
2022/12/14 11:43:59;;;;;;;6.20;2.97;;;22.20;42.00;;;;;;5049563;28;20225;-40
2022/12/14 11:46:26;;;;;;;6.13;3.17;;;22.10;42.20;;;;;;5047192;28;20202;-38
2022/12/14 11:48:52;;;;;;;5.57;3.35;;;21.90;42.70;;;;;;5047703;28;20216;-42
2022/12/14 11:51:18;;;;;;;8.93;3.28;;;21.80;43.10;;;;;;5042737;28;20689;-40
2022/12/14 11:53:45;;;;;;;9.52;3.70;;;21.70;43.40;;;;;;5052841;28;20206;-39
2022/12/14 11:56:11;;;;;;;8.27;3.30;;;21.50;43.60;;;;;;5042602;28;20202;-42
2022/12/14 11:58:38;;;;;;;5.63;3.25;;;21.50;43.80;;;;;;5043540;28;20198;-50
2022/12/14 12:01:04;;;;;;;5.43;3.17;;;21.50;44.10;;;;;;5037637;28;20201;-57
2022/12/14 12:03:31;;;;;;;5.45;3.10;;;21.50;44.60;;;;;;5048500;28;20226;-52
2022/12/14 12:05:57;;;;;;;9.90;3.92;;;21.40;44.90;;;;;;5043935;28;20209;-40
2022/12/14 12:08:23;;;;;;;8.10;4.10;;;21.40;45.60;;;;;;5045313;28;20210;-55
2022/12/14 12:10:50;;;;;;;9.63;5.13;;;21.40;47.30;;;;;;5050015;28;20225;-43
2022/12/14 12:13:16;;;;;;;8.18;4.82;;;21.40;48.70;;;;;;5047108;28;20204;-55
2022/12/14 12:15:43;;;;;;;6.93;4.97;;;21.40;49.00;;;;;;5034659;28;20198;-50
2022/12/14 12:18:09;;;;;;;10.23;5.95;;;21.40;49.40;;;;;;5039232;28;20391;-60
2022/12/14 12:20:36;;;;;;;6.32;4.80;;;21.40;48.80;;;;;;5047531;28;20222;-46
2022/12/14 12:23:02;;;;;;;7.00;4.40;;;21.40;48.60;;;;;;5043845;28;20214;-54
2022/12/14 12:25:29;;;;;;;9.45;4.82;;;21.40;48.40;;;;;;5049566;28;20208;-44
2022/12/14 12:27:55;;;;;;;7.10;4.47;;;21.40;48.50;;;;;;5043662;28;20289;-43
2022/12/14 12:30:22;;;;;;;5.95;4.40;;;21.40;48.30;;;;;;5048251;28;20232;-43
2022/12/14 12:32:49;;;;;;;5.68;3.90;;;21.40;48.50;;;;;;5040939;28;20297;-39
2022/12/14 12:35:15;;;;;;;6.95;4.00;;;21.40;48.10;;;;;;5049330;28;20213;-41
2022/12/14 12:37:41;;;;;;;8.35;4.00;;;21.40;48.10;;;;;;5043710;28;20200;-50
2022/12/14 12:40:08;;;;;;;8.05;4.10;;;21.40;48.00;;;;;;5040325;28;20242;-45
2022/12/14 12:42:34;;;;;;;6.28;3.92;;;21.30;47.90;;;;;;5048021;28;20257;-46
2022/12/14 12:45:01;;;;;;;6.85;4.00;;;21.30;47.90;;;;;;5050556;28;20684;-48
2022/12/14 12:47:27;;;;;;;5.43;4.05;;;21.30;47.80;;;;;;5039321;28;20670;-58
2022/12/14 12:49:54;;;;;;;6.43;3.58;;;21.30;47.70;;;;;;5051645;28;20651;-52
2022/12/14 12:52:20;;;;;;;5.63;3.92;;;21.20;47.70;;;;;;5044841;28;20216;-56
2022/12/14 12:54:47;;;;;;;6.22;3.65;;;21.20;47.60;;;;;;5046213;28;20213;-48
2022/12/14 12:57:13;;;;;;;5.25;3.65;;;21.20;47.70;;;;;;5036517;28;20206;-49
2022/12/14 12:59:40;;;;;;;5.32;3.60;;;21.10;47.70;;;;;;5032187;28;20222;-53
2022/12/14 13:02:06;;;;;;;5.15;3.85;;;21.10;47.60;;;;;;5046305;28;22060;-58
2022/12/14 13:04:32;;;;;;;6.43;3.63;;;21.20;47.70;;;;;;5046213;28;20232;-42
2022/12/14 13:06:59;;;;;;;5.32;3.70;;;21.20;47.50;;;;;;5048873;28;20197;-45
2022/12/14 13:09:25;;;;;;;4.32;3.42;;;21.20;47.50;;;;;;5042649;28;20213;-45
2022/12/14 13:11:52;;;;;;;5.35;3.65;;;21.10;47.30;;;;;;5042086;28;20300;-47
2022/12/14 13:14:18;;;;;;;5.00;3.72;;;21.20;47.30;;;;;;5048013;28;20208;-50
2022/12/14 13:16:45;;;;;;;7.28;3.80;;;21.20;47.20;;;;;;5040789;28;20572;-48
2022/12/14 13:19:11;;;;;;;4.10;3.45;;;21.10;47.20;;;;;;5038216;28;20225;-47
2022/12/14 13:21:37;;;;;;;5.25;4.00;;;21.10;47.20;;;;;;5040959;28;20209;-55
2022/12/14 13:24:05;;;;;;;5.35;3.55;;;21.10;47.00;;;;;;5041312;28;20225;-40
2022/12/14 13:26:31;;;;;;;4.60;3.50;;;21.10;46.90;;;;;;5049559;28;20609;-40
2022/12/14 13:28:58;;;;;;;4.45;3.47;;;21.20;46.80;;;;;;5050831;28;20225;-41
2022/12/14 13:31:25;;;;;;;3.80;3.13;;;21.20;46.80;;;;;;5047827;28;20209;-46
2022/12/14 13:33:51;;;;;;;4.35;3.20;;;21.20;46.70;;;;;;5048767;28;20202;-40
2022/12/14 13:36:17;;;;;;;4.10;3.53;;;21.20;46.50;;;;;;5048144;28;20307;-40
2022/12/14 13:38:44;;;;;;;4.35;3.15;;;21.20;46.40;;;;;;5048283;28;20221;-40
2022/12/14 13:41:11;;;;;;;7.88;3.45;;;21.20;46.20;;;;;;5020983;28;20260;-45
2022/12/14 13:43:37;;;;;;;4.07;2.70;;;21.20;46.30;;;;;;5050897;28;20279;-48
2022/12/14 13:46:04;;;;;;;4.03;2.97;;;21.20;46.00;;;;;;5050529;28;20208;-57
2022/12/14 13:48:30;;;;;;;2.47;2.28;;;21.30;45.30;;;;;;5050201;28;20232;-50
2022/12/14 13:50:56;;;;;;;4.20;2.50;;;21.10;45.10;;;;;;5048519;28;20649;-58
2022/12/14 13:53:23;;;;;;;4.03;2.55;;;21.00;45.10;;;;;;5047701;28;20202;-57
2022/12/14 13:55:50;;;;;;;6.72;2.97;;;21.00;45.40;;;;;;5051458;28;20210;-48
2022/12/14 13:58:17;;;;;;;2.88;2.60;;;21.00;45.60;;;;;;5048605;28;20304;-47
2022/12/14 14:00:43;;;;;;;3.50;2.72;;;20.90;45.80;;;;;;5050489;28;20231;-46
2022/12/14 14:03:10;;;;;;;4.20;2.60;;;20.90;45.80;;;;;;5047791;28;20198;-56
2022/12/14 14:05:36;;;;;;;4.60;2.55;;;20.90;46.00;;;;;;5049986;28;20221;-43
2022/12/14 14:08:03;;;;;;;5.03;2.50;;;20.80;46.00;;;;;;5045471;28;20206;-50
2022/12/14 14:10:29;;;;;;;4.47;3.13;;;20.80;46.00;;;;;;5052855;28;20206;-44
2022/12/14 14:12:55;;;;;;;4.57;2.70;;;20.80;46.10;;;;;;5049791;28;20677;-46
2022/12/14 14:15:22;;;;;;;4.30;2.15;;;20.80;46.10;;;;;;5045963;28;20202;-41
2022/12/14 14:17:49;;;;;;;3.05;2.50;;;20.70;46.10;;;;;;5044857;28;20210;-48
2022/12/14 14:20:15;;;;;;;3.63;2.30;;;20.70;46.10;;;;;;5042555;28;20212;-49
2022/12/14 14:22:41;;;;;;;3.08;2.40;;;20.80;46.30;;;;;;5042221;28;20213;-53
2022/12/14 14:25:08;;;;;;;3.75;2.10;;;20.80;46.40;;;;;;5052199;28;20697;-56
2022/12/14 14:27:35;;;;;;;2.75;2.40;;;20.80;46.40;;;;;;5053788;28;20217;-51
2022/12/14 14:30:01;;;;;;;2.28;2.10;;;20.80;46.40;;;;;;5053106;28;20248;-45
2022/12/14 14:32:28;;;;;;;2.80;2.60;;;20.90;46.40;;;;;;5046570;28;20197;-53
2022/12/14 14:34:54;;;;;;;4.13;2.60;;;20.90;46.30;;;;;;5049850;28;20212;-50
2022/12/14 14:37:21;;;;;;;3.15;2.38;;;20.90;46.20;;;;;;5050597;28;20194;-53
2022/12/14 14:39:47;;;;;;;2.50;2.30;;;21.00;46.30;;;;;;5051967;28;20218;-41
2022/12/14 14:42:13;;;;;;;2.40;2.20;;;21.00;46.30;;;;;;5048586;28;20194;-42
2022/12/14 14:44:40;;;;;;;2.35;2.15;;;21.00;46.20;;;;;;5037610;28;20233;-41
2022/12/14 14:47:06;;;;;;;4.68;3.53;;;21.00;45.70;;;;;;5053341;28;20202;-44
2022/12/14 14:49:33;;;;;;;3.03;2.47;;;21.20;46.10;;;;;;5051513;28;20571;-45
2022/12/14 14:51:59;;;;;;;3.28;2.70;;;21.40;45.30;;;;;;5046182;28;20213;-54
2022/12/14 14:54:26;;;;;;;4.00;2.50;;;21.90;44.30;;;;;;5027904;28;20202;-53
2022/12/14 14:56:52;;;;;;;3.25;2.60;;;22.40;43.70;;;;;;5080062;28;20198;-51
2022/12/14 14:59:19;;;;;;;2.85;2.58;;;22.60;42.80;;;;;;5051598;28;20217;-49
2022/12/14 15:01:45;;;;;;;4.25;2.33;;;22.80;42.60;;;;;;5045278;28;20237;-51
2022/12/14 15:04:11;;;;;;;3.67;2.28;;;23.00;42.00;;;;;;5039083;28;20240;-46
2022/12/14 15:06:38;;;;;;;3.63;2.47;;;23.10;41.70;;;;;;5042006;28;20206;-47
2022/12/14 15:09:05;;;;;;;3.78;2.50;;;23.20;41.90;;;;;;5048548;28;20244;-51
2022/12/14 15:11:31;;;;;;;3.05;2.30;;;23.30;41.40;;;;;;5048909;28;21948;-47
2022/12/14 15:13:58;;;;;;;3.22;2.45;;;23.30;41.30;;;;;;5051050;28;20205;-51
2022/12/14 15:16:24;;;;;;;2.83;2.45;;;23.20;41.60;;;;;;5049813;28;20206;-45
2022/12/14 15:18:51;;;;;;;3.45;2.50;;;23.20;41.20;;;;;;5045547;28;20708;-47
2022/12/14 15:21:17;;;;;;;4.57;2.40;;;23.10;41.30;;;;;;5047855;28;20298;-44
2022/12/14 15:23:44;;;;;;;3.80;3.10;;;23.00;41.80;;;;;;5044747;28;20209;-46
2022/12/14 15:26:10;;;;;;;4.72;3.00;;;22.90;40.40;;;;;;5046096;28;20267;-45
2022/12/14 15:28:37;;;;;;;2.83;2.50;;;22.90;41.90;;;;;;5039586;28;20362;-58
2022/12/14 15:31:03;;;;;;;4.50;2.60;;;23.00;41.60;;;;;;5044658;28;20202;-52
2022/12/14 15:33:30;;;;;;;5.47;2.47;;;23.10;41.20;;;;;;5046946;28;20609;-59
2022/12/14 15:35:56;;;;;;;3.03;2.60;;;23.20;41.20;;;;;;5049458;28;20212;-48
2022/12/14 15:38:22;;;;;;;3.13;2.28;;;23.40;40.90;;;;;;5048025;28;20686;-56
2022/12/14 15:40:49;;;;;;;4.05;2.22;;;23.50;40.60;;;;;;5051595;28;20680;-48
2022/12/14 15:43:15;;;;;;;4.43;2.55;;;23.60;40.50;;;;;;5050765;28;20201;-52
2022/12/14 15:45:42;;;;;;;2.58;2.38;;;23.60;40.70;;;;;;5050062;28;20236;-47
2022/12/14 15:48:08;;;;;;;3.17;2.50;;;23.50;41.10;;;;;;5048945;28;20221;-53
2022/12/14 15:50:38;;;;;;;3.67;2.42;;;23.30;40.70;;;;;;5047828;28;20216;-50
